• Join FlightAware (Why Join?)
  • Login
  • US Flag 
08:45AM EST


 

Airport Tracker/Info


-or-


 

Live Flight TrackerFlight Track Log ✈ CPT8773 ✈ 10-Jun-2013 ✈ KCPR - KCOD

Flight Track Log - Related Links

Times and Time Zones

All times are in EDT time to prevent confusion due to time zone crossing. See the CPT8773 flight status page for this flight to view local times or setup timezone preferences in your user account.

Time Position Orientation Groundspeed Altitude Reporting Facility
EDT Latitude Longitude Course Direction KTS MPH feet Rate Location/Type
09:07AM 42.9914 -106.5353 308° West 108 124 8,700  Level Denver Center
09:08AM 43.0208 -106.5433 349° North 110 127 9,200 480 Climbing Denver Center
09:09AM 43.0508 -106.5519 348° North 112 129 9,700 420 Climbing Denver Center
09:10AM 43.0485 -106.3015 36° Northeast  Level FlightAware Approximate
09:10AM 43.0886 -106.5617 349° North 117 135 10,100  Level Denver Center
09:11AM 43.0782 -106.2718 36° Northeast  Level FlightAware Approximate
09:11AM 43.1217 -106.5700 350° North 124 143 10,600  Level Denver Center
09:12AM 43.1021 -106.2995 308° West  Level FlightAware Approximate
09:12AM 43.1597 -106.5789 350° North 126 145 11,100  Level Denver Center
09:13AM 43.1908 -106.5878 348° North 121 139 11,500 360 Climbing Denver Center
09:14AM 43.2236 -106.5969 348° North 124 143 11,900 240 Climbing Denver Center
09:15AM 43.2661 -106.6053 352° North 134 154 12,100 60 Climbing Denver Center
09:16AM 43.2911 -106.6347 319° Northwest 136 157 12,100  Level Denver Center
09:17AM 43.3033 -106.6828 289° West 139 160 12,100  Level Denver Center
09:18AM 43.3325 -106.7306 310° West 144 166 12,100  Level Denver Center
09:19AM 43.3514 -106.7753 300° West 142 163 12,100  Level Denver Center
09:20AM 43.3750 -106.8169 308° West 144 166 12,100  Level Denver Center
09:21AM 43.4011 -106.8667 306° West 143 165 12,100  Level Denver Center
09:22AM 43.4242 -106.9111 306° West 142 163 12,100  Level Denver Center
09:23AM 43.4481 -106.9528 308° West 144 166 12,100 -120 Level Denver Center
09:24AM 43.4717 -107.0053 302° West 143 165 11,900 -60 Descending Salt Lake Center
09:25AM 43.4956 -107.0536 304° West 138 159 12,000  Climbing Salt Lake Center
09:26AM 43.5181 -107.0983 305° West 146 168 12,000  Level Salt Lake Center
09:27AM 43.5442 -107.1389 312° West 148 170 12,000  Level Denver Center
09:28AM 43.5658 -107.1831 304° West 147 169 12,000  Level Denver Center
09:29AM 43.5831 -107.2156 306° West 136 157 12,000  Level Denver Center
09:30AM 43.6111 -107.2703 305° West 135 155 12,100  Climbing Denver Center
09:31AM 43.6336 -107.3125 306° West 141 162 12,100 -60 Level Denver Center
09:32AM 43.6583 -107.3625 304° West 140 161 12,000 -60 Descending Salt Lake Center
09:33AM 43.6808 -107.4025 308° West 139 160 12,000 -60 Level Salt Lake Center
09:34AM 43.7061 -107.4508 306° West 138 159 11,900  Descending Salt Lake Center
09:35AM 43.7267 -107.4886 307° West 135 155 12,000  Climbing Salt Lake Center
09:36AM 43.7483 -107.5342 303° West 130 150 12,000  Level Salt Lake Center
09:37AM 43.7689 -107.5742 305° West 130 150 12,000 -60 Level Salt Lake Center
09:38AM 43.7903 -107.6122 308° West 131 151 11,900  Descending Salt Lake Center
09:39AM 43.8142 -107.6572 306° West 130 150 12,000  Climbing Salt Lake Center
09:40AM 43.8344 -107.6978 305° West 131 151 12,000  Level Salt Lake Center
09:41AM 43.8556 -107.7394 305° West 134 154 12,000  Level Salt Lake Center
09:42AM 43.8811 -107.7875 306° West 137 158 12,000  Level Salt Lake Center
09:43AM 43.9042 -107.8281 308° West 138 159 12,000 -60 Level Salt Lake Center
09:44AM 43.9258 -107.8694 306° West 138 159 11,900  Descending Salt Lake Center
09:45AM 43.9503 -107.9164 306° West 137 158 12,000  Climbing Salt Lake Center
09:46AM 43.9708 -107.9581 304° West 136 157 12,000  Level Salt Lake Center
09:47AM 43.9958 -108.0056 306° West 136 157 12,000  Level Salt Lake Center
09:48AM 44.0172 -108.0458 306° West 136 157 12,100  Climbing Salt Lake Center
09:50AM 44.0389 -108.0867 306° West 136 157 12,100  Level Salt Lake Center
09:51AM 44.0628 -108.1344 305° West 136 157 12,100  Level Salt Lake Center
09:52AM 44.0847 -108.1753 307° West 136 157 12,100  Level Salt Lake Center
09:53AM 44.1097 -108.2233 306° West 137 158 12,100  Level Salt Lake Center
09:54AM 44.1308 -108.2647 305° West 137 158 12,100  Level Salt Lake Center
09:55AM 44.1522 -108.3064 306° West 137 158 12,100  Level Salt Lake Center
09:56AM 44.1775 -108.3547 306° West 138 159 12,100 -60 Level Salt Lake Center
09:57AM 44.1983 -108.3953 306° West 136 157 12,000  Descending Salt Lake Center
09:58AM 44.2189 -108.4364 305° West 136 157 12,100  Climbing Salt Lake Center
09:59AM 44.2439 -108.4842 306° West 136 157 12,100 -120 Level Salt Lake Center
10:00AM 44.2653 -108.5264 305° West 137 158 11,900 -360 Descending Salt Lake Center
10:01AM 44.2933 -108.5783 307° West 142 163 11,400 -540 Descending Salt Lake Center
10:02AM 44.3186 -108.6267 306° West 151 174 10,900 -540 Descending Salt Lake Center